sensor_id;sensor_type;location;lat;lon;timestamp;temperature;humidity
5392;DHT22;2719;53.624;9.786;2024-01-07T00:00:30;0.20;99.90
5392;DHT22;2719;53.624;9.786;2024-01-07T00:02:56;0.10;99.90
5392;DHT22;2719;53.624;9.786;2024-01-07T00:05:24;0.20;99.90
5392;DHT22;2719;53.624;9.786;2024-01-07T00:07:51;0.20;99.90
5392;DHT22;2719;53.624;9.786;2024-01-07T00:10:17;0.20;99.90
5392;DHT22;2719;53.624;9.786;2024-01-07T00:12:44;0.20;99.90
5392;DHT22;2719;53.624;9.786;2024-01-07T00:15:11;0.20;99.90
5392;DHT22;2719;53.624;9.786;2024-01-07T00:17:37;0.30;99.90
5392;DHT22;2719;53.624;9.786;2024-01-07T00:20:05;0.30;99.90
5392;DHT22;2719;53.624;9.786;2024-01-07T00:22:33;0.30;99.90
5392;DHT22;2719;53.624;9.786;2024-01-07T00:25:00;0.20;99.90
5392;DHT22;2719;53.624;9.786;2024-01-07T00:27:27;0.20;99.90
5392;DHT22;2719;53.624;9.786;2024-01-07T00:29:53;0.20;99.90
5392;DHT22;2719;53.624;9.786;2024-01-07T00:32:20;0.30;99.90
5392;DHT22;2719;53.624;9.786;2024-01-07T00:34:47;0.30;99.90
5392;DHT22;2719;53.624;9.786;2024-01-07T00:37:13;0.20;99.90
5392;DHT22;2719;53.624;9.786;2024-01-07T00:39:41;0.20;99.90
5392;DHT22;2719;53.624;9.786;2024-01-07T00:42:09;0.20;99.90
5392;DHT22;2719;53.624;9.786;2024-01-07T00:44:37;0.20;99.90
5392;DHT22;2719;53.624;9.786;2024-01-07T00:47:03;0.20;99.90
5392;DHT22;2719;53.624;9.786;2024-01-07T00:49:30;0.20;99.90
5392;DHT22;2719;53.624;9.786;2024-01-07T00:51:57;0.20;99.90
5392;DHT22;2719;53.624;9.786;2024-01-07T00:54:23;0.20;99.90
5392;DHT22;2719;53.624;9.786;2024-01-07T00:56:50;0.30;99.90
5392;DHT22;2719;53.624;9.786;2024-01-07T00:59:17;0.20;99.90
5392;DHT22;2719;53.624;9.786;2024-01-07T01:01:43;0.20;99.90
5392;DHT22;2719;53.624;9.786;2024-01-07T01:04:10;0.30;99.90
5392;DHT22;2719;53.624;9.786;2024-01-07T01:06:37;0.30;99.90
5392;DHT22;2719;53.624;9.786;2024-01-07T01:09:03;0.30;99.90
5392;DHT22;2719;53.624;9.786;2024-01-07T01:11:30;0.30;99.90
5392;DHT22;2719;53.624;9.786;2024-01-07T01:13:58;0.20;99.90
5392;DHT22;2719;53.624;9.786;2024-01-07T01:16:24;0.30;99.90
5392;DHT22;2719;53.624;9.786;2024-01-07T01:18:51;0.40;99.90
5392;DHT22;2719;53.624;9.786;2024-01-07T01:21:17;0.40;99.90
5392;DHT22;2719;53.624;9.786;2024-01-07T01:23:46;0.30;99.90
5392;DHT22;2719;53.624;9.786;2024-01-07T01:26:12;0.30;99.90
5392;DHT22;2719;53.624;9.786;2024-01-07T01:28:39;0.30;99.90
5392;DHT22;2719;53.624;9.786;2024-01-07T01:31:07;0.20;99.90
5392;DHT22;2719;53.624;9.786;2024-01-07T01:33:33;0.20;99.90
5392;DHT22;2719;53.624;9.786;2024-01-07T01:36:04;0.20;99.90
5392;DHT22;2719;53.624;9.786;2024-01-07T01:38:31;0.20;99.90
5392;DHT22;2719;53.624;9.786;2024-01-07T01:40:57;0.10;99.90
5392;DHT22;2719;53.624;9.786;2024-01-07T01:43:24;0.10;99.90
5392;DHT22;2719;53.624;9.786;2024-01-07T01:45:51;0.00;99.90
5392;DHT22;2719;53.624;9.786;2024-01-07T01:48:19;0.10;99.90
5392;DHT22;2719;53.624;9.786;2024-01-07T01:50:46;0.10;99.90
5392;DHT22;2719;53.624;9.786;2024-01-07T01:53:13;0.20;99.90
5392;DHT22;2719;53.624;9.786;2024-01-07T01:55:41;0.20;99.90
5392;DHT22;2719;53.624;9.786;2024-01-07T01:58:09;0.10;99.90
5392;DHT22;2719;53.624;9.786;2024-01-07T02:00:35;0.20;99.90
5392;DHT22;2719;53.624;9.786;2024-01-07T02:03:02;0.10;99.90
5392;DHT22;2719;53.624;9.786;2024-01-07T02:05:30;0.10;99.90
5392;DHT22;2719;53.624;9.786;2024-01-07T02:07:58;0.20;99.90
5392;DHT22;2719;53.624;9.786;2024-01-07T02:10:25;0.20;99.90
5392;DHT22;2719;53.624;9.786;2024-01-07T02:12:52;0.30;99.90
5392;DHT22;2719;53.624;9.786;2024-01-07T02:15:19;0.30;99.90
5392;DHT22;2719;53.624;9.786;2024-01-07T02:17:45;0.30;99.90
5392;DHT22;2719;53.624;9.786;2024-01-07T02:20:12;0.30;99.90
5392;DHT22;2719;53.624;9.786;2024-01-07T02:22:40;0.30;99.90
5392;DHT22;2719;53.624;9.786;2024-01-07T02:25:08;0.40;99.90
5392;DHT22;2719;53.624;9.786;2024-01-07T02:27:35;0.30;99.90
5392;DHT22;2719;53.624;9.786;2024-01-07T02:30:01;0.40;99.90
5392;DHT22;2719;53.624;9.786;2024-01-07T02:32:28;0.30;99.90
5392;DHT22;2719;53.624;9.786;2024-01-07T02:34:57;0.40;99.90
5392;DHT22;2719;53.624;9.786;2024-01-07T02:37:24;0.30;99.90
5392;DHT22;2719;53.624;9.786;2024-01-07T02:39:51;0.30;99.90
5392;DHT22;2719;53.624;9.786;2024-01-07T02:42:19;0.30;99.90
5392;DHT22;2719;53.624;9.786;2024-01-07T02:44:45;0.30;99.90
5392;DHT22;2719;53.624;9.786;2024-01-07T02:47:12;0.40;99.90
5392;DHT22;2719;53.624;9.786;2024-01-07T02:49:38;0.40;99.90
5392;DHT22;2719;53.624;9.786;2024-01-07T02:52:05;0.40;99.90
5392;DHT22;2719;53.624;9.786;2024-01-07T02:54:32;0.50;99.90
5392;DHT22;2719;53.624;9.786;2024-01-07T02:56:58;0.50;99.90
5392;DHT22;2719;53.624;9.786;2024-01-07T02:59:26;0.50;99.90
5392;DHT22;2719;53.624;9.786;2024-01-07T03:01:53;0.60;99.90
5392;DHT22;2719;53.624;9.786;2024-01-07T03:04:19;0.60;99.90
5392;DHT22;2719;53.624;9.786;2024-01-07T03:06:46;0.60;99.90
5392;DHT22;2719;53.624;9.786;2024-01-07T03:09:13;0.60;99.90
5392;DHT22;2719;53.624;9.786;2024-01-07T03:11:40;0.60;99.90
5392;DHT22;2719;53.624;9.786;2024-01-07T03:14:07;0.60;99.90
5392;DHT22;2719;53.624;9.786;2024-01-07T03:16:35;0.60;99.90
5392;DHT22;2719;53.624;9.786;2024-01-07T03:19:01;0.60;99.90
5392;DHT22;2719;53.624;9.786;2024-01-07T03:21:29;0.60;99.90
5392;DHT22;2719;53.624;9.786;2024-01-07T03:23:56;0.50;99.90
5392;DHT22;2719;53.624;9.786;2024-01-07T03:26:23;0.50;99.90
5392;DHT22;2719;53.624;9.786;2024-01-07T03:28:49;0.50;99.90
5392;DHT22;2719;53.624;9.786;2024-01-07T03:31:16;0.50;99.90
5392;DHT22;2719;53.624;9.786;2024-01-07T03:33:46;0.50;99.90
5392;DHT22;2719;53.624;9.786;2024-01-07T03:36:13;0.50;99.90
5392;DHT22;2719;53.624;9.786;2024-01-07T03:38:40;0.50;99.90
5392;DHT22;2719;53.624;9.786;2024-01-07T03:41:07;0.50;99.90
5392;DHT22;2719;53.624;9.786;2024-01-07T03:43:34;0.50;99.90
5392;DHT22;2719;53.624;9.786;2024-01-07T03:46:01;0.50;99.90
5392;DHT22;2719;53.624;9.786;2024-01-07T03:48:27;0.60;99.90
5392;DHT22;2719;53.624;9.786;2024-01-07T03:50:55;0.60;99.90
5392;DHT22;2719;53.624;9.786;2024-01-07T03:53:22;0.50;99.90
5392;DHT22;2719;53.624;9.786;2024-01-07T03:55:49;0.50;99.90
5392;DHT22;2719;53.624;9.786;2024-01-07T03:58:15;0.50;99.90
5392;DHT22;2719;53.624;9.786;2024-01-07T04:00:42;0.60;99.90
5392;DHT22;2719;53.624;9.786;2024-01-07T04:03:09;0.60;99.90
5392;DHT22;2719;53.624;9.786;2024-01-07T04:05:36;0.60;99.90
5392;DHT22;2719;53.624;9.786;2024-01-07T04:08:05;0.60;99.90
5392;DHT22;2719;53.624;9.786;2024-01-07T04:10:31;0.60;99.90
5392;DHT22;2719;53.624;9.786;2024-01-07T04:12:58;0.70;99.90
5392;DHT22;2719;53.624;9.786;2024-01-07T04:15:24;0.80;99.90
5392;DHT22;2719;53.624;9.786;2024-01-07T04:17:51;0.80;99.90
5392;DHT22;2719;53.624;9.786;2024-01-07T04:20:18;0.90;99.90
5392;DHT22;2719;53.624;9.786;2024-01-07T04:22:44;0.90;99.90
5392;DHT22;2719;53.624;9.786;2024-01-07T04:25:12;0.90;99.90
5392;DHT22;2719;53.624;9.786;2024-01-07T04:27:39;1.00;99.90
5392;DHT22;2719;53.624;9.786;2024-01-07T04:30:06;1.00;99.90
5392;DHT22;2719;53.624;9.786;2024-01-07T04:32:33;1.00;99.90
5392;DHT22;2719;53.624;9.786;2024-01-07T04:34:59;1.00;99.90
5392;DHT22;2719;53.624;9.786;2024-01-07T04:37:26;1.00;99.90
5392;DHT22;2719;53.624;9.786;2024-01-07T04:39:53;1.00;99.90
5392;DHT22;2719;53.624;9.786;2024-01-07T04:42:21;1.00;99.90
5392;DHT22;2719;53.624;9.786;2024-01-07T04:44:47;1.00;99.90
5392;DHT22;2719;53.624;9.786;2024-01-07T04:47:25;1.10;99.90
5392;DHT22;2719;53.624;9.786;2024-01-07T04:49:52;1.10;99.90
5392;DHT22;2719;53.624;9.786;2024-01-07T04:52:19;1.20;99.90
5392;DHT22;2719;53.624;9.786;2024-01-07T04:54:46;1.20;99.90
5392;DHT22;2719;53.624;9.786;2024-01-07T04:57:12;1.20;99.90
5392;DHT22;2719;53.624;9.786;2024-01-07T04:59:40;1.10;99.90
5392;DHT22;2719;53.624;9.786;2024-01-07T05:02:07;1.10;99.90
5392;DHT22;2719;53.624;9.786;2024-01-07T05:04:35;1.20;99.90
5392;DHT22;2719;53.624;9.786;2024-01-07T05:07:01;1.10;99.90
5392;DHT22;2719;53.624;9.786;2024-01-07T05:09:28;1.20;99.90
5392;DHT22;2719;53.624;9.786;2024-01-07T05:11:55;1.20;99.90
5392;DHT22;2719;53.624;9.786;2024-01-07T05:14:22;1.30;99.90
5392;DHT22;2719;53.624;9.786;2024-01-07T05:16:50;1.30;99.90
5392;DHT22;2719;53.624;9.786;2024-01-07T05:19:16;1.40;99.90
5392;DHT22;2719;53.624;9.786;2024-01-07T05:21:43;1.40;99.90
5392;DHT22;2719;53.624;9.786;2024-01-07T05:24:10;1.40;99.90
5392;DHT22;2719;53.624;9.786;2024-01-07T05:26:38;1.40;99.90
5392;DHT22;2719;53.624;9.786;2024-01-07T05:29:05;1.40;99.90
5392;DHT22;2719;53.624;9.786;2024-01-07T05:31:32;1.30;99.90
5392;DHT22;2719;53.624;9.786;2024-01-07T05:34:00;1.40;99.90
5392;DHT22;2719;53.624;9.786;2024-01-07T05:36:27;1.40;99.90
5392;DHT22;2719;53.624;9.786;2024-01-07T05:38:53;1.40;99.90
5392;DHT22;2719;53.624;9.786;2024-01-07T05:41:20;1.40;99.90
5392;DHT22;2719;53.624;9.786;2024-01-07T05:43:46;1.40;99.90
5392;DHT22;2719;53.624;9.786;2024-01-07T05:46:13;1.40;99.90
5392;DHT22;2719;53.624;9.786;2024-01-07T05:48:43;1.50;99.90
5392;DHT22;2719;53.624;9.786;2024-01-07T05:51:12;1.40;99.90
5392;DHT22;2719;53.624;9.786;2024-01-07T05:53:39;1.40;99.90
5392;DHT22;2719;53.624;9.786;2024-01-07T05:56:06;1.40;99.90
5392;DHT22;2719;53.624;9.786;2024-01-07T05:58:33;1.40;99.90
5392;DHT22;2719;53.624;9.786;2024-01-07T06:00:59;1.40;99.90
5392;DHT22;2719;53.624;9.786;2024-01-07T06:03:26;1.40;99.90
5392;DHT22;2719;53.624;9.786;2024-01-07T06:05:53;1.40;99.90
5392;DHT22;2719;53.624;9.786;2024-01-07T06:08:21;1.30;99.90
5392;DHT22;2719;53.624;9.786;2024-01-07T06:10:48;1.40;99.90
5392;DHT22;2719;53.624;9.786;2024-01-07T06:13:15;1.40;99.90
5392;DHT22;2719;53.624;9.786;2024-01-07T06:15:42;1.30;99.90
5392;DHT22;2719;53.624;9.786;2024-01-07T06:18:08;1.40;99.90
5392;DHT22;2719;53.624;9.786;2024-01-07T06:20:36;1.30;99.90
5392;DHT22;2719;53.624;9.786;2024-01-07T06:23:02;1.30;99.90
5392;DHT22;2719;53.624;9.786;2024-01-07T06:25:31;1.40;99.90
5392;DHT22;2719;53.624;9.786;2024-01-07T06:27:57;1.30;99.90
5392;DHT22;2719;53.624;9.786;2024-01-07T06:30:24;1.30;99.90
5392;DHT22;2719;53.624;9.786;2024-01-07T06:32:51;1.30;99.90
5392;DHT22;2719;53.624;9.786;2024-01-07T06:35:18;1.30;99.90
5392;DHT22;2719;53.624;9.786;2024-01-07T06:37:45;1.30;99.90
5392;DHT22;2719;53.624;9.786;2024-01-07T06:40:11;1.30;99.90
5392;DHT22;2719;53.624;9.786;2024-01-07T06:42:39;1.40;99.90
5392;DHT22;2719;53.624;9.786;2024-01-07T06:45:07;1.30;99.90
5392;DHT22;2719;53.624;9.786;2024-01-07T06:47:34;1.30;99.90
5392;DHT22;2719;53.624;9.786;2024-01-07T06:50:01;1.30;99.90
5392;DHT22;2719;53.624;9.786;2024-01-07T06:52:27;1.30;99.90
5392;DHT22;2719;53.624;9.786;2024-01-07T06:54:54;1.30;99.90
5392;DHT22;2719;53.624;9.786;2024-01-07T06:57:21;1.20;99.90
5392;DHT22;2719;53.624;9.786;2024-01-07T06:59:49;1.20;99.90
5392;DHT22;2719;53.624;9.786;2024-01-07T07:02:15;1.20;99.90
5392;DHT22;2719;53.624;9.786;2024-01-07T07:04:42;1.10;99.90
5392;DHT22;2719;53.624;9.786;2024-01-07T07:07:09;1.10;99.90
5392;DHT22;2719;53.624;9.786;2024-01-07T07:09:35;1.10;99.90
5392;DHT22;2719;53.624;9.786;2024-01-07T07:12:02;1.10;99.90
5392;DHT22;2719;53.624;9.786;2024-01-07T07:14:29;1.00;99.90
5392;DHT22;2719;53.624;9.786;2024-01-07T07:16:58;1.00;99.90
5392;DHT22;2719;53.624;9.786;2024-01-07T07:19:25;1.00;99.90
5392;DHT22;2719;53.624;9.786;2024-01-07T07:21:51;1.00;99.90
5392;DHT22;2719;53.624;9.786;2024-01-07T07:24:18;1.00;99.90
5392;DHT22;2719;53.624;9.786;2024-01-07T07:26:44;0.90;99.90
5392;DHT22;2719;53.624;9.786;2024-01-07T07:29:11;0.90;99.90
5392;DHT22;2719;53.624;9.786;2024-01-07T07:31:38;1.00;99.90
5392;DHT22;2719;53.624;9.786;2024-01-07T07:34:09;1.00;99.90
5392;DHT22;2719;53.624;9.786;2024-01-07T07:36:36;1.10;99.90
5392;DHT22;2719;53.624;9.786;2024-01-07T07:39:02;1.00;99.90
5392;DHT22;2719;53.624;9.786;2024-01-07T07:41:29;1.00;99.90
5392;DHT22;2719;53.624;9.786;2024-01-07T07:43:56;0.90;99.90
5392;DHT22;2719;53.624;9.786;2024-01-07T07:46:22;0.90;99.90
5392;DHT22;2719;53.624;9.786;2024-01-07T07:48:49;0.80;99.90
5392;DHT22;2719;53.624;9.786;2024-01-07T07:51:17;0.90;99.90
5392;DHT22;2719;53.624;9.786;2024-01-07T07:53:44;0.80;99.90
5392;DHT22;2719;53.624;9.786;2024-01-07T07:56:10;0.70;99.90
5392;DHT22;2719;53.624;9.786;2024-01-07T07:58:37;0.60;99.90
5392;DHT22;2719;53.624;9.786;2024-01-07T08:01:04;0.50;99.90
5392;DHT22;2719;53.624;9.786;2024-01-07T08:03:32;0.50;99.90
5392;DHT22;2719;53.624;9.786;2024-01-07T08:05:58;0.50;99.90
5392;DHT22;2719;53.624;9.786;2024-01-07T08:08:26;0.50;99.90
5392;DHT22;2719;53.624;9.786;2024-01-07T08:10:53;0.60;99.90
5392;DHT22;2719;53.624;9.786;2024-01-07T08:13:20;0.60;99.90
5392;DHT22;2719;53.624;9.786;2024-01-07T08:15:47;0.70;99.90
5392;DHT22;2719;53.624;9.786;2024-01-07T08:18:14;0.70;99.90
5392;DHT22;2719;53.624;9.786;2024-01-07T08:20:41;0.70;99.90
5392;DHT22;2719;53.624;9.786;2024-01-07T08:23:07;0.60;99.90
5392;DHT22;2719;53.624;9.786;2024-01-07T08:25:36;0.60;99.90
5392;DHT22;2719;53.624;9.786;2024-01-07T08:28:02;0.50;99.90
5392;DHT22;2719;53.624;9.786;2024-01-07T08:30:29;0.40;99.90
5392;DHT22;2719;53.624;9.786;2024-01-07T08:32:56;0.40;99.90
5392;DHT22;2719;53.624;9.786;2024-01-07T08:35:22;0.40;99.90
5392;DHT22;2719;53.624;9.786;2024-01-07T08:37:49;0.40;99.90
5392;DHT22;2719;53.624;9.786;2024-01-07T08:40:16;0.40;99.90
5392;DHT22;2719;53.624;9.786;2024-01-07T08:42:45;0.40;99.90
5392;DHT22;2719;53.624;9.786;2024-01-07T08:45:12;0.40;99.90
5392;DHT22;2719;53.624;9.786;2024-01-07T08:47:39;0.40;99.90
5392;DHT22;2719;53.624;9.786;2024-01-07T08:50:06;0.30;99.90
5392;DHT22;2719;53.624;9.786;2024-01-07T08:52:33;0.40;99.90
5392;DHT22;2719;53.624;9.786;2024-01-07T08:55:01;0.40;99.90
5392;DHT22;2719;53.624;9.786;2024-01-07T08:57:27;0.30;99.90
5392;DHT22;2719;53.624;9.786;2024-01-07T08:59:55;0.20;99.90
5392;DHT22;2719;53.624;9.786;2024-01-07T09:02:22;0.20;99.90
5392;DHT22;2719;53.624;9.786;2024-01-07T09:04:49;0.20;99.90
5392;DHT22;2719;53.624;9.786;2024-01-07T09:07:15;0.30;99.90
5392;DHT22;2719;53.624;9.786;2024-01-07T09:09:42;0.30;99.90
5392;DHT22;2719;53.624;9.786;2024-01-07T09:12:09;0.30;99.90
5392;DHT22;2719;53.624;9.786;2024-01-07T09:14:37;0.30;99.90
5392;DHT22;2719;53.624;9.786;2024-01-07T09:17:05;0.30;99.90
5392;DHT22;2719;53.624;9.786;2024-01-07T09:19:32;0.40;99.90
5392;DHT22;2719;53.624;9.786;2024-01-07T09:21:59;0.30;99.90
5392;DHT22;2719;53.624;9.786;2024-01-07T09:24:25;0.40;99.90
5392;DHT22;2719;53.624;9.786;2024-01-07T09:26:52;0.30;99.90
5392;DHT22;2719;53.624;9.786;2024-01-07T09:29:18;0.40;99.90
5392;DHT22;2719;53.624;9.786;2024-01-07T09:31:45;0.30;99.90
5392;DHT22;2719;53.624;9.786;2024-01-07T09:34:13;0.40;99.90
5392;DHT22;2719;53.624;9.786;2024-01-07T09:36:41;0.40;99.90
5392;DHT22;2719;53.624;9.786;2024-01-07T09:39:07;0.30;99.90
5392;DHT22;2719;53.624;9.786;2024-01-07T09:41:35;0.30;99.90
5392;DHT22;2719;53.624;9.786;2024-01-07T09:44:01;0.20;99.90
5392;DHT22;2719;53.624;9.786;2024-01-07T09:46:29;0.10;99.90
5392;DHT22;2719;53.624;9.786;2024-01-07T09:48:57;0.30;99.90
5392;DHT22;2719;53.624;9.786;2024-01-07T09:51:26;0.40;99.90
5392;DHT22;2719;53.624;9.786;2024-01-07T09:53:58;0.40;99.90
5392;DHT22;2719;53.624;9.786;2024-01-07T09:56:34;0.50;99.90
5392;DHT22;2719;53.624;9.786;2024-01-07T09:59:02;0.60;99.90
5392;DHT22;2719;53.624;9.786;2024-01-07T10:01:30;0.70;99.90
5392;DHT22;2719;53.624;9.786;2024-01-07T10:03:57;0.60;99.90
5392;DHT22;2719;53.624;9.786;2024-01-07T10:06:25;0.70;99.90
5392;DHT22;2719;53.624;9.786;2024-01-07T10:08:52;0.80;99.90
5392;DHT22;2719;53.624;9.786;2024-01-07T10:11:19;1.00;99.90
5392;DHT22;2719;53.624;9.786;2024-01-07T10:13:47;1.20;99.90
5392;DHT22;2719;53.624;9.786;2024-01-07T10:16:16;1.40;99.90
5392;DHT22;2719;53.624;9.786;2024-01-07T10:18:43;1.60;99.90
5392;DHT22;2719;53.624;9.786;2024-01-07T10:21:09;1.90;99.90
5392;DHT22;2719;53.624;9.786;2024-01-07T10:23:37;1.90;99.90
5392;DHT22;2719;53.624;9.786;2024-01-07T10:26:04;2.20;99.90
5392;DHT22;2719;53.624;9.786;2024-01-07T10:28:31;2.20;99.90
5392;DHT22;2719;53.624;9.786;2024-01-07T10:30:58;2.40;99.90
5392;DHT22;2719;53.624;9.786;2024-01-07T10:33:24;2.50;99.90
5392;DHT22;2719;53.624;9.786;2024-01-07T10:35:52;2.60;99.90
5392;DHT22;2719;53.624;9.786;2024-01-07T10:38:22;2.70;99.90
5392;DHT22;2719;53.624;9.786;2024-01-07T10:40:52;2.80;99.90
5392;DHT22;2719;53.624;9.786;2024-01-07T10:43:21;3.00;99.90
5392;DHT22;2719;53.624;9.786;2024-01-07T10:45:48;2.90;99.90
5392;DHT22;2719;53.624;9.786;2024-01-07T10:48:17;2.90;99.90
5392;DHT22;2719;53.624;9.786;2024-01-07T10:50:45;2.80;99.90
5392;DHT22;2719;53.624;9.786;2024-01-07T10:53:18;2.90;99.90
5392;DHT22;2719;53.624;9.786;2024-01-07T10:55:51;2.90;99.90
5392;DHT22;2719;53.624;9.786;2024-01-07T10:58:21;3.10;99.90
5392;DHT22;2719;53.624;9.786;2024-01-07T11:00:48;3.00;99.90
5392;DHT22;2719;53.624;9.786;2024-01-07T11:03:20;3.10;99.90
5392;DHT22;2719;53.624;9.786;2024-01-07T11:05:50;3.20;99.90
5392;DHT22;2719;53.624;9.786;2024-01-07T11:08:23;2.90;99.90
5392;DHT22;2719;53.624;9.786;2024-01-07T11:10:57;2.90;99.90
5392;DHT22;2719;53.624;9.786;2024-01-07T11:13:36;2.90;99.90
5392;DHT22;2719;53.624;9.786;2024-01-07T11:16:04;2.90;99.90
5392;DHT22;2719;53.624;9.786;2024-01-07T11:18:31;3.10;99.90
5392;DHT22;2719;53.624;9.786;2024-01-07T11:21:01;3.20;99.90
5392;DHT22;2719;53.624;9.786;2024-01-07T11:23:29;3.20;99.90
5392;DHT22;2719;53.624;9.786;2024-01-07T11:25:57;3.10;99.90
5392;DHT22;2719;53.624;9.786;2024-01-07T11:28:47;3.00;99.90
5392;DHT22;2719;53.624;9.786;2024-01-07T11:31:15;3.00;99.90
5392;DHT22;2719;53.624;9.786;2024-01-07T11:33:42;3.30;99.90
5392;DHT22;2719;53.624;9.786;2024-01-07T11:36:12;3.50;99.90
5392;DHT22;2719;53.624;9.786;2024-01-07T11:38:41;3.50;99.90
5392;DHT22;2719;53.624;9.786;2024-01-07T11:41:10;3.70;99.90
5392;DHT22;2719;53.624;9.786;2024-01-07T11:43:37;3.80;99.90
5392;DHT22;2719;53.624;9.786;2024-01-07T11:46:06;3.50;99.90
5392;DHT22;2719;53.624;9.786;2024-01-07T11:48:32;3.40;99.90
5392;DHT22;2719;53.624;9.786;2024-01-07T11:50:59;3.00;99.90
5392;DHT22;2719;53.624;9.786;2024-01-07T11:53:26;2.60;99.90
5392;DHT22;2719;53.624;9.786;2024-01-07T11:55:52;2.70;99.90
5392;DHT22;2719;53.624;9.786;2024-01-07T11:58:19;2.60;99.90
5392;DHT22;2719;53.624;9.786;2024-01-07T12:00:45;2.70;99.90
5392;DHT22;2719;53.624;9.786;2024-01-07T12:03:13;2.50;99.90
5392;DHT22;2719;53.624;9.786;2024-01-07T12:05:40;2.40;99.90
5392;DHT22;2719;53.624;9.786;2024-01-07T12:08:07;2.40;99.90
5392;DHT22;2719;53.624;9.786;2024-01-07T12:10:34;2.50;99.90
5392;DHT22;2719;53.624;9.786;2024-01-07T12:13:01;2.60;99.90
5392;DHT22;2719;53.624;9.786;2024-01-07T12:15:29;2.70;99.90
5392;DHT22;2719;53.624;9.786;2024-01-07T12:17:56;2.80;99.90
5392;DHT22;2719;53.624;9.786;2024-01-07T12:20:25;2.60;99.90
5392;DHT22;2719;53.624;9.786;2024-01-07T12:22:56;2.50;99.90
5392;DHT22;2719;53.624;9.786;2024-01-07T12:25:22;2.40;99.90
5392;DHT22;2719;53.624;9.786;2024-01-07T12:27:50;2.30;99.90
5392;DHT22;2719;53.624;9.786;2024-01-07T12:30:19;2.40;99.90
5392;DHT22;2719;53.624;9.786;2024-01-07T12:32:46;2.40;99.90
5392;DHT22;2719;53.624;9.786;2024-01-07T12:35:13;2.20;99.90
5392;DHT22;2719;53.624;9.786;2024-01-07T12:37:42;2.20;99.90
5392;DHT22;2719;53.624;9.786;2024-01-07T12:40:10;2.40;99.90
5392;DHT22;2719;53.624;9.786;2024-01-07T12:42:37;2.50;99.90
5392;DHT22;2719;53.624;9.786;2024-01-07T12:45:06;2.50;99.90
5392;DHT22;2719;53.624;9.786;2024-01-07T12:47:34;2.40;99.90
5392;DHT22;2719;53.624;9.786;2024-01-07T12:50:01;2.40;99.90
5392;DHT22;2719;53.624;9.786;2024-01-07T12:52:28;2.50;99.90
5392;DHT22;2719;53.624;9.786;2024-01-07T12:54:55;2.70;99.90
5392;DHT22;2719;53.624;9.786;2024-01-07T12:57:23;2.80;99.90
5392;DHT22;2719;53.624;9.786;2024-01-07T12:59:50;2.80;99.90
5392;DHT22;2719;53.624;9.786;2024-01-07T13:02:16;2.70;99.90
5392;DHT22;2719;53.624;9.786;2024-01-07T13:04:43;2.50;99.90
5392;DHT22;2719;53.624;9.786;2024-01-07T13:07:09;2.50;99.90
5392;DHT22;2719;53.624;9.786;2024-01-07T13:09:36;2.60;99.90
5392;DHT22;2719;53.624;9.786;2024-01-07T13:12:05;2.70;99.90
5392;DHT22;2719;53.624;9.786;2024-01-07T13:14:31;2.70;99.90
5392;DHT22;2719;53.624;9.786;2024-01-07T13:16:58;2.70;99.90
5392;DHT22;2719;53.624;9.786;2024-01-07T13:19:24;2.70;99.90
5392;DHT22;2719;53.624;9.786;2024-01-07T13:21:52;2.60;99.90
5392;DHT22;2719;53.624;9.786;2024-01-07T13:24:20;2.70;99.90
5392;DHT22;2719;53.624;9.786;2024-01-07T13:26:47;2.80;99.90
5392;DHT22;2719;53.624;9.786;2024-01-07T13:29:15;2.80;98.70
5392;DHT22;2719;53.624;9.786;2024-01-07T13:31:42;2.80;99.10
5392;DHT22;2719;53.624;9.786;2024-01-07T13:34:09;2.80;98.60
5392;DHT22;2719;53.624;9.786;2024-01-07T13:36:35;2.60;98.70
5392;DHT22;2719;53.624;9.786;2024-01-07T13:39:02;2.70;98.90
5392;DHT22;2719;53.624;9.786;2024-01-07T13:41:32;2.70;98.60
5392;DHT22;2719;53.624;9.786;2024-01-07T13:43:59;2.90;98.90
5392;DHT22;2719;53.624;9.786;2024-01-07T13:46:27;3.00;99.60
5392;DHT22;2719;53.624;9.786;2024-01-07T13:48:54;2.70;97.90
5392;DHT22;2719;53.624;9.786;2024-01-07T13:51:20;2.60;98.70
5392;DHT22;2719;53.624;9.786;2024-01-07T13:53:47;2.70;98.50
5392;DHT22;2719;53.624;9.786;2024-01-07T13:56:14;2.60;98.40
5392;DHT22;2719;53.624;9.786;2024-01-07T13:58:40;2.20;97.70
5392;DHT22;2719;53.624;9.786;2024-01-07T14:01:07;2.20;98.90
5392;DHT22;2719;53.624;9.786;2024-01-07T14:03:35;2.20;98.70
5392;DHT22;2719;53.624;9.786;2024-01-07T14:06:01;2.10;99.10
5392;DHT22;2719;53.624;9.786;2024-01-07T14:08:28;1.90;99.90
5392;DHT22;2719;53.624;9.786;2024-01-07T14:10:55;1.90;99.40
5392;DHT22;2719;53.624;9.786;2024-01-07T14:13:23;1.90;99.90
5392;DHT22;2719;53.624;9.786;2024-01-07T14:15:50;1.70;99.90
5392;DHT22;2719;53.624;9.786;2024-01-07T14:18:16;1.50;99.90
5392;DHT22;2719;53.624;9.786;2024-01-07T14:20:48;1.40;99.90
5392;DHT22;2719;53.624;9.786;2024-01-07T14:23:15;1.40;99.90
5392;DHT22;2719;53.624;9.786;2024-01-07T14:25:41;1.50;99.90
5392;DHT22;2719;53.624;9.786;2024-01-07T14:28:08;1.90;99.90
5392;DHT22;2719;53.624;9.786;2024-01-07T14:30:35;2.20;99.90
5392;DHT22;2719;53.624;9.786;2024-01-07T14:33:01;2.00;99.90
5392;DHT22;2719;53.624;9.786;2024-01-07T14:35:28;1.60;99.90
5392;DHT22;2719;53.624;9.786;2024-01-07T14:37:58;1.50;99.90
5392;DHT22;2719;53.624;9.786;2024-01-07T14:40:25;1.30;99.90
5392;DHT22;2719;53.624;9.786;2024-01-07T14:42:51;1.20;99.90
5392;DHT22;2719;53.624;9.786;2024-01-07T14:45:23;1.00;99.90
5392;DHT22;2719;53.624;9.786;2024-01-07T14:47:49;1.00;99.90
5392;DHT22;2719;53.624;9.786;2024-01-07T14:50:16;0.90;99.90
5392;DHT22;2719;53.624;9.786;2024-01-07T14:52:44;0.90;99.90
5392;DHT22;2719;53.624;9.786;2024-01-07T14:55:12;0.80;99.90
5392;DHT22;2719;53.624;9.786;2024-01-07T14:57:39;0.70;99.90
5392;DHT22;2719;53.624;9.786;2024-01-07T15:00:06;0.70;99.90
5392;DHT22;2719;53.624;9.786;2024-01-07T15:02:33;0.60;99.90
5392;DHT22;2719;53.624;9.786;2024-01-07T15:05:00;0.50;99.90
5392;DHT22;2719;53.624;9.786;2024-01-07T15:07:28;0.50;99.90
5392;DHT22;2719;53.624;9.786;2024-01-07T15:09:55;0.50;99.90
5392;DHT22;2719;53.624;9.786;2024-01-07T15:12:23;0.50;99.90
5392;DHT22;2719;53.624;9.786;2024-01-07T15:14:49;0.30;99.90
5392;DHT22;2719;53.624;9.786;2024-01-07T15:17:16;0.10;99.90
5392;DHT22;2719;53.624;9.786;2024-01-07T15:19:43;0.10;99.90
5392;DHT22;2719;53.624;9.786;2024-01-07T15:22:11;0.10;99.90
5392;DHT22;2719;53.624;9.786;2024-01-07T15:24:38;0.10;99.90
5392;DHT22;2719;53.624;9.786;2024-01-07T15:27:04;0.00;99.90
5392;DHT22;2719;53.624;9.786;2024-01-07T15:29:32;0.00;99.90
5392;DHT22;2719;53.624;9.786;2024-01-07T15:31:59;0.00;99.90
5392;DHT22;2719;53.624;9.786;2024-01-07T15:34:26;-0.10;99.90
5392;DHT22;2719;53.624;9.786;2024-01-07T15:36:52;-0.10;99.90
5392;DHT22;2719;53.624;9.786;2024-01-07T15:39:19;0.00;99.90
5392;DHT22;2719;53.624;9.786;2024-01-07T15:41:45;0.00;99.90
5392;DHT22;2719;53.624;9.786;2024-01-07T15:44:12;0.10;99.90
5392;DHT22;2719;53.624;9.786;2024-01-07T15:46:40;0.10;99.90
5392;DHT22;2719;53.624;9.786;2024-01-07T15:49:07;0.20;99.90
5392;DHT22;2719;53.624;9.786;2024-01-07T15:51:34;0.00;99.90
5392;DHT22;2719;53.624;9.786;2024-01-07T15:54:00;0.10;99.90
5392;DHT22;2719;53.624;9.786;2024-01-07T15:56:27;0.10;99.90
5392;DHT22;2719;53.624;9.786;2024-01-07T15:58:53;0.10;99.90
5392;DHT22;2719;53.624;9.786;2024-01-07T16:01:20;0.10;99.90
5392;DHT22;2719;53.624;9.786;2024-01-07T16:03:48;0.10;99.90
5392;DHT22;2719;53.624;9.786;2024-01-07T16:06:15;0.10;99.90
5392;DHT22;2719;53.624;9.786;2024-01-07T16:08:41;0.00;99.90
5392;DHT22;2719;53.624;9.786;2024-01-07T16:11:08;0.00;99.90
5392;DHT22;2719;53.624;9.786;2024-01-07T16:13:36;-0.10;99.90
5392;DHT22;2719;53.624;9.786;2024-01-07T16:16:03;-0.10;99.90